UAL1550 KLAX-KSBP
Flight info
| Callsign | UAL1550 |
|---|---|
| Flight time | 0h 25m |
| Altitude | 22000 |
| Route | DARRK3 IKAYE DCT RZS DCT CADAB DCT |
| Aircraft | A320/M-VGDW/C |
Departure
| Time | 2026-04-21 01:48 |
|---|---|
| Airport | Los Angeles International Airport (KLAX) |
Arrival
| Time | 2026-04-21 02:13 |
|---|---|
| Airport | San Luis County Regional Airport (KSBP) |
| Time | Latitude | Longitude | Altitude | Speed | Heading |
|---|---|---|---|---|---|
| 2026-04-21 01:25 | 33.94044 | -118.39906 | 96 ft | 0 kts | 354° |
| 2026-04-21 01:37 | 33.94029 | -118.39904 | 96 ft | 4 kts | 354° |
| 2026-04-21 01:38 | 33.94004 | -118.39900 | 96 ft | 2 kts | 354° |
| 2026-04-21 01:38 | 33.93981 | -118.39901 | 97 ft | 4 kts | 36° |
| 2026-04-21 01:38 | 33.93968 | -118.39926 | 99 ft | 4 kts | 84° |
| 2026-04-21 01:38 | 33.93967 | -118.39949 | 97 ft | 0 kts | 83° |
| 2026-04-21 01:43 | 33.93967 | -118.39947 | 98 ft | 1 kts | 84° |
| 2026-04-21 01:43 | 33.93969 | -118.39924 | 96 ft | 4 kts | 84° |
| 2026-04-21 01:43 | 33.93973 | -118.39875 | 96 ft | 9 kts | 85° |
| 2026-04-21 01:43 | 33.93942 | -118.39799 | 99 ft | 10 kts | 148° |
| 2026-04-21 01:44 | 33.93907 | -118.39723 | 103 ft | 18 kts | 93° |
| 2026-04-21 01:44 | 33.93919 | -118.39562 | 103 ft | 20 kts | 83° |
| 2026-04-21 01:44 | 33.93941 | -118.39382 | 100 ft | 23 kts | 82° |
| 2026-04-21 01:44 | 33.93962 | -118.39183 | 101 ft | 25 kts | 83° |
| 2026-04-21 01:45 | 33.93983 | -118.38969 | 102 ft | 26 kts | 83° |
| 2026-04-21 01:45 | 33.94006 | -118.38741 | 102 ft | 28 kts | 81° |
| 2026-04-21 01:45 | 33.94031 | -118.38499 | 103 ft | 30 kts | 84° |
| 2026-04-21 01:45 | 33.94058 | -118.38246 | 103 ft | 32 kts | 83° |
| 2026-04-21 01:46 | 33.94078 | -118.38055 | 102 ft | 11 kts | 82° |
| 2026-04-21 01:46 | 33.94076 | -118.38026 | 103 ft | 0 kts | 105° |
| 2026-04-21 01:47 | 33.94075 | -118.38023 | 103 ft | 4 kts | 107° |
| 2026-04-21 01:47 | 33.94033 | -118.38000 | 107 ft | 6 kts | 175° |
| 2026-04-21 01:47 | 33.93994 | -118.38005 | 109 ft | 5 kts | 206° |
| 2026-04-21 01:47 | 33.93981 | -118.38072 | 110 ft | 19 kts | 264° |
| 2026-04-21 01:48 | 33.93938 | -118.38492 | 109 ft | 83 kts | 263° |
| 2026-04-21 01:48 | 33.93844 | -118.39406 | 107 ft | 134 kts | 263° |
| 2026-04-21 01:48 | 33.93712 | -118.40682 | 222 ft | 164 kts | 263° |
| 2026-04-21 01:48 | 33.93585 | -118.42016 | 953 ft | 159 kts | 263° |
| 2026-04-21 01:49 | 33.93472 | -118.43342 | 1645 ft | 159 kts | 264° |
| 2026-04-21 01:49 | 33.93372 | -118.44674 | 2280 ft | 163 kts | 265° |
| 2026-04-21 01:49 | 33.93256 | -118.46085 | 2722 ft | 175 kts | 263° |
| 2026-04-21 01:49 | 33.93061 | -118.47573 | 3230 ft | 185 kts | 260° |
| 2026-04-21 01:50 | 33.92822 | -118.49135 | 3777 ft | 194 kts | 259° |
| 2026-04-21 01:50 | 33.92564 | -118.50784 | 4249 ft | 211 kts | 258° |
| 2026-04-21 01:50 | 33.92281 | -118.52604 | 4648 ft | 235 kts | 258° |
| 2026-04-21 01:50 | 33.91981 | -118.54656 | 4963 ft | 267 kts | 259° |
| 2026-04-21 01:51 | 33.91710 | -118.56969 | 5000 ft | 279 kts | 261° |
| 2026-04-21 01:51 | 33.91478 | -118.59240 | 5006 ft | 270 kts | 261° |
| 2026-04-21 01:51 | 33.91256 | -118.61481 | 5009 ft | 270 kts | 262° |
| 2026-04-21 01:51 | 33.91349 | -118.63720 | 5218 ft | 270 kts | 283° |
| 2026-04-21 01:52 | 33.92048 | -118.65611 | 5665 ft | 277 kts | 298° |
| 2026-04-21 01:52 | 33.94035 | -118.69644 | 6667 ft | 282 kts | 298° |
| 2026-04-21 01:52 | 33.95049 | -118.71677 | 7138 ft | 285 kts | 298° |
| 2026-04-21 01:53 | 33.96076 | -118.73737 | 7632 ft | 287 kts | 298° |
| 2026-04-21 01:53 | 33.97107 | -118.75809 | 7964 ft | 290 kts | 298° |
| 2026-04-21 01:53 | 33.98142 | -118.77897 | 8033 ft | 290 kts | 298° |
| 2026-04-21 01:53 | 33.99177 | -118.79987 | 8040 ft | 290 kts | 298° |
| 2026-04-21 01:54 | 34.00197 | -118.82045 | 8045 ft | 290 kts | 298° |
| 2026-04-21 01:54 | 34.01231 | -118.84128 | 8045 ft | 290 kts | 297° |
| 2026-04-21 01:54 | 34.02266 | -118.86215 | 8050 ft | 290 kts | 298° |
| 2026-04-21 01:54 | 34.03302 | -118.88308 | 8050 ft | 290 kts | 298° |
| 2026-04-21 01:55 | 34.04335 | -118.90397 | 8050 ft | 290 kts | 297° |
| 2026-04-21 01:55 | 34.05367 | -118.92487 | 8050 ft | 290 kts | 297° |
| 2026-04-21 01:55 | 34.06400 | -118.94577 | 8054 ft | 290 kts | 298° |
| 2026-04-21 01:55 | 34.07427 | -118.96654 | 8294 ft | 287 kts | 298° |
| 2026-04-21 01:56 | 34.08458 | -118.98741 | 8798 ft | 292 kts | 297° |
| 2026-04-21 01:56 | 34.09497 | -119.00854 | 9312 ft | 295 kts | 297° |
| 2026-04-21 01:56 | 34.10547 | -119.02995 | 9838 ft | 297 kts | 296° |
| 2026-04-21 01:56 | 34.11606 | -119.05147 | 10314 ft | 303 kts | 297° |
| 2026-04-21 01:57 | 34.12753 | -119.07347 | 10776 ft | 316 kts | 299° |
| 2026-04-21 01:57 | 34.13984 | -119.09595 | 11210 ft | 329 kts | 300° |
| 2026-04-21 01:57 | 34.15295 | -119.11944 | 11655 ft | 342 kts | 300° |
| 2026-04-21 01:57 | 34.16654 | -119.14367 | 12111 ft | 354 kts | 300° |
| 2026-04-21 01:58 | 34.18052 | -119.16868 | 12557 ft | 364 kts | 299° |
| 2026-04-21 01:58 | 34.19486 | -119.19447 | 13013 ft | 374 kts | 299° |
| 2026-04-21 01:58 | 34.20950 | -119.22097 | 13492 ft | 383 kts | 299° |
| 2026-04-21 01:58 | 34.22441 | -119.24810 | 13958 ft | 391 kts | 299° |
| 2026-04-21 01:59 | 34.23959 | -119.27579 | 14374 ft | 399 kts | 298° |
| 2026-04-21 01:59 | 34.25485 | -119.30361 | 14796 ft | 406 kts | 298° |
| 2026-04-21 01:59 | 34.27060 | -119.33235 | 15231 ft | 413 kts | 298° |
| 2026-04-21 01:59 | 34.28653 | -119.36144 | 15668 ft | 418 kts | 298° |
| 2026-04-21 02:00 | 34.30269 | -119.39095 | 16117 ft | 421 kts | 298° |
| 2026-04-21 02:00 | 34.31891 | -119.42056 | 16567 ft | 424 kts | 298° |
| 2026-04-21 02:00 | 34.33528 | -119.45049 | 17034 ft | 427 kts | 298° |
| 2026-04-21 02:00 | 34.35174 | -119.48059 | 17495 ft | 430 kts | 298° |
| 2026-04-21 02:01 | 34.36828 | -119.51089 | 17969 ft | 433 kts | 298° |
| 2026-04-21 02:01 | 34.38495 | -119.54143 | 18432 ft | 436 kts | 298° |
| 2026-04-21 02:01 | 34.40174 | -119.57229 | 18872 ft | 438 kts | 298° |
| 2026-04-21 02:01 | 34.41850 | -119.60315 | 19335 ft | 440 kts | 298° |
| 2026-04-21 02:02 | 34.43539 | -119.63427 | 19809 ft | 443 kts | 298° |
| 2026-04-21 02:02 | 34.45238 | -119.66557 | 20261 ft | 445 kts | 298° |
| 2026-04-21 02:02 | 34.46945 | -119.69705 | 20659 ft | 449 kts | 298° |
| 2026-04-21 02:02 | 34.48666 | -119.72878 | 21035 ft | 452 kts | 298° |
| 2026-04-21 02:03 | 34.50418 | -119.76060 | 21403 ft | 456 kts | 301° |
| 2026-04-21 02:03 | 34.52603 | -119.78895 | 21773 ft | 464 kts | 313° |
| 2026-04-21 02:03 | 34.55019 | -119.81508 | 21994 ft | 468 kts | 313° |
| 2026-04-21 02:03 | 34.57451 | -119.84133 | 22049 ft | 477 kts | 313° |
| 2026-04-21 02:04 | 34.59941 | -119.86819 | 22035 ft | 480 kts | 313° |
| 2026-04-21 02:04 | 34.62441 | -119.89516 | 22034 ft | 481 kts | 313° |
| 2026-04-21 02:04 | 34.64935 | -119.92209 | 22037 ft | 481 kts | 313° |
| 2026-04-21 02:04 | 34.67443 | -119.94917 | 22044 ft | 482 kts | 313° |
| 2026-04-21 02:05 | 34.69948 | -119.97625 | 22019 ft | 482 kts | 313° |
| 2026-04-21 02:05 | 34.72455 | -120.00340 | 21978 ft | 482 kts | 313° |
| 2026-04-21 02:05 | 34.74951 | -120.03051 | 21038 ft | 479 kts | 313° |
| 2026-04-21 02:05 | 34.77426 | -120.05742 | 20088 ft | 476 kts | 313° |
| 2026-04-21 02:06 | 34.79885 | -120.08417 | 19165 ft | 472 kts | 313° |
| 2026-04-21 02:06 | 34.82327 | -120.11078 | 18242 ft | 470 kts | 313° |
| 2026-04-21 02:06 | 34.84754 | -120.13727 | 17228 ft | 466 kts | 313° |
| 2026-04-21 02:06 | 34.87139 | -120.16325 | 16238 ft | 450 kts | 313° |
| 2026-04-21 02:07 | 34.89426 | -120.18811 | 15299 ft | 434 kts | 313° |
| 2026-04-21 02:07 | 34.91648 | -120.21232 | 14376 ft | 423 kts | 313° |
| 2026-04-21 02:07 | 34.93790 | -120.23570 | 13434 ft | 412 kts | 313° |
| 2026-04-21 02:07 | 34.95919 | -120.25903 | 12401 ft | 401 kts | 313° |
| 2026-04-21 02:08 | 34.97963 | -120.28146 | 11443 ft | 390 kts | 314° |
| 2026-04-21 02:08 | 34.99933 | -120.30307 | 10506 ft | 382 kts | 314° |
| 2026-04-21 02:08 | 35.01884 | -120.32446 | 9527 ft | 373 kts | 314° |
| 2026-04-21 02:08 | 35.03795 | -120.34547 | 8493 ft | 367 kts | 314° |
| 2026-04-21 02:09 | 35.05681 | -120.36624 | 7488 ft | 360 kts | 315° |
| 2026-04-21 02:09 | 35.07520 | -120.38651 | 6524 ft | 354 kts | 314° |
| 2026-04-21 02:09 | 35.09337 | -120.40650 | 5518 ft | 349 kts | 315° |
| 2026-04-21 02:09 | 35.11133 | -120.42628 | 4568 ft | 344 kts | 315° |
| 2026-04-21 02:10 | 35.12679 | -120.44723 | 4177 ft | 319 kts | 304° |
| 2026-04-21 02:10 | 35.13933 | -120.46815 | 4028 ft | 293 kts | 302° |
| 2026-04-21 02:10 | 35.15064 | -120.48776 | 3883 ft | 272 kts | 301° |
| 2026-04-21 02:10 | 35.16096 | -120.50594 | 3809 ft | 250 kts | 301° |
| 2026-04-21 02:11 | 35.17073 | -120.52333 | 3558 ft | 245 kts | 301° |
| 2026-04-21 02:11 | 35.18006 | -120.53984 | 3122 ft | 226 kts | 300° |
| 2026-04-21 02:11 | 35.18845 | -120.55460 | 3007 ft | 194 kts | 300° |
| 2026-04-21 02:11 | 35.19576 | -120.56755 | 2657 ft | 180 kts | 299° |
| 2026-04-21 02:12 | 35.20248 | -120.57999 | 2229 ft | 168 kts | 298° |
| 2026-04-21 02:12 | 35.20877 | -120.59163 | 1755 ft | 163 kts | 297° |
| 2026-04-21 02:12 | 35.21515 | -120.60294 | 1285 ft | 159 kts | 302° |
| 2026-04-21 02:12 | 35.22171 | -120.61365 | 917 ft | 156 kts | 306° |
| 2026-04-21 02:13 | 35.22777 | -120.62455 | 511 ft | 155 kts | 306° |
| 2026-04-21 02:13 | 35.23393 | -120.63510 | 216 ft | 148 kts | 301° |
| 2026-04-21 02:13 | 35.23893 | -120.64394 | 203 ft | 103 kts | 304° |
| 2026-04-21 02:13 | 35.24080 | -120.64693 | 176 ft | 4 kts | 1° |
| 2026-04-21 02:14 | 35.24089 | -120.64696 | 176 ft | 0 kts | 339° |
| 2026-04-21 02:14 | 35.24101 | -120.64702 | 176 ft | 3 kts | 338° |
| 2026-04-21 02:14 | 35.24130 | -120.64698 | 176 ft | 5 kts | 20° |
| 2026-04-21 02:14 | 35.24153 | -120.64660 | 176 ft | 7 kts | 88° |
| 2026-04-21 02:15 | 35.24150 | -120.64643 | 176 ft | 2 kts | 113° |
| 2026-04-21 02:15 | 35.24139 | -120.64624 | 176 ft | 4 kts | 124° |
| 2026-04-21 02:15 | 35.24119 | -120.64588 | 176 ft | 6 kts | 124° |
| 2026-04-21 02:15 | 35.24092 | -120.64542 | 178 ft | 7 kts | 125° |
| 2026-04-21 02:16 | 35.24066 | -120.64495 | 179 ft | 6 kts | 124° |
| 2026-04-21 02:16 | 35.24050 | -120.64466 | 181 ft | 6 kts | 124° |
| 2026-04-21 02:16 | 35.23989 | -120.64360 | 195 ft | 17 kts | 126° |
| 2026-04-21 02:16 | 35.23941 | -120.64281 | 203 ft | 18 kts | 124° |
| 2026-04-21 02:17 | 35.23866 | -120.64171 | 198 ft | 16 kts | 128° |
| 2026-04-21 02:17 | 35.23809 | -120.64058 | 203 ft | 16 kts | 114° |
| 2026-04-21 02:17 | 35.23760 | -120.63942 | 205 ft | 13 kts | 113° |
| 2026-04-21 02:17 | 35.23802 | -120.63889 | 212 ft | 8 kts | 27° |
| 2026-04-21 02:18 | 35.23814 | -120.63853 | 208 ft | 1 kts | 94° |
| 2026-04-21 02:18 | 35.23815 | -120.63847 | 203 ft | 1 kts | 84° |
| 2026-04-21 02:18 | 35.23815 | -120.63840 | 203 ft | 0 kts | 89° |